Time;durP1;ratioP1;P1;durP2;ratioP2;P2;SDS_P1;SDS_P2;PMS_P1;PMS_P2;Temp;Humidity;BMP_temperature;BMP_pressure;BME280_temperature;BME280_humidity;BME280_pressure;Samples;Min_cycle;Max_cycle;Signal;HPM_P1;HPM_P2
2022/11/09 00:01:26;;;;;;;4.93;2.13;;;12.60;99.90;;;;;;5003479;28;20077;-54
2022/11/09 00:04:00;;;;;;;6.97;2.30;;;12.70;99.90;;;;;;5003065;28;20082;-54
2022/11/09 00:06:27;;;;;;;6.55;2.22;;;12.70;99.90;;;;;;5002974;28;20037;-54
2022/11/09 00:08:53;;;;;;;5.82;2.40;;;12.60;99.90;;;;;;5002367;28;20065;-53
2022/11/09 00:11:19;;;;;;;5.50;2.28;;;12.80;99.90;;;;;;5003331;28;20089;-53
2022/11/09 00:13:46;;;;;;;5.18;2.33;;;12.80;99.90;;;;;;5003407;28;20046;-54
2022/11/09 00:16:16;;;;;;;7.80;2.33;;;12.80;99.90;;;;;;5003188;28;20448;-54
2022/11/09 00:18:48;;;;;;;6.45;2.20;;;13.00;99.90;;;;;;5003384;28;20148;-54
2022/11/09 00:21:16;;;;;;;5.65;2.28;;;13.10;99.90;;;;;;5003687;28;20097;-53
2022/11/09 00:23:42;;;;;;;4.53;2.08;;;13.10;99.90;;;;;;4984063;28;20049;-52
2022/11/09 00:26:10;;;;;;;6.88;2.65;;;13.10;99.90;;;;;;5004405;28;20038;-54
2022/11/09 00:28:36;;;;;;;6.82;2.30;;;13.10;99.90;;;;;;5003299;28;20077;-54
2022/11/09 00:31:06;;;;;;;7.40;2.85;;;13.20;99.90;;;;;;5002787;28;20567;-53
2022/11/09 00:33:32;;;;;;;5.15;2.20;;;13.20;99.90;;;;;;5002775;28;20041;-54
2022/11/09 00:36:01;;;;;;;5.15;2.13;;;13.10;99.90;;;;;;5002800;28;20042;-54
2022/11/09 00:38:27;;;;;;;5.65;2.55;;;12.90;99.90;;;;;;5002513;28;20100;-54
2022/11/09 00:40:52;;;;;;;5.80;2.50;;;12.90;99.90;;;;;;5002203;28;20046;-52
2022/11/09 00:43:18;;;;;;;6.80;2.72;;;12.90;99.90;;;;;;5003367;28;20793;-54
2022/11/09 00:45:46;;;;;;;5.85;2.50;;;12.90;99.90;;;;;;5002701;28;20034;-54
2022/11/09 00:48:11;;;;;;;8.65;2.55;;;12.80;99.90;;;;;;5002862;28;20416;-54
2022/11/09 00:50:37;;;;;;;7.72;2.55;;;13.00;99.90;;;;;;5003083;28;20096;-53
2022/11/09 00:53:03;;;;;;;5.45;2.22;;;12.80;99.90;;;;;;5002028;28;20129;-53
2022/11/09 00:55:28;;;;;;;7.35;2.42;;;12.80;99.90;;;;;;5002651;28;20065;-53
2022/11/09 00:57:54;;;;;;;5.88;2.47;;;12.90;99.90;;;;;;5001848;28;20512;-54
2022/11/09 01:00:22;;;;;;;6.35;2.42;;;12.80;99.90;;;;;;5002732;28;20046;-54
2022/11/09 01:02:49;;;;;;;5.45;2.20;;;12.80;99.90;;;;;;5002996;28;20081;-54
2022/11/09 01:05:14;;;;;;;5.68;2.30;;;12.80;99.90;;;;;;4985130;28;20459;-52
2022/11/09 01:07:40;;;;;;;6.40;2.40;;;12.90;99.90;;;;;;5001698;28;20042;-53
2022/11/09 01:10:06;;;;;;;7.65;2.85;;;12.90;99.90;;;;;;5002959;28;20045;-53
2022/11/09 01:12:32;;;;;;;6.00;2.30;;;12.70;99.90;;;;;;5002553;28;20082;-53
2022/11/09 01:14:58;;;;;;;7.07;2.60;;;12.70;99.90;;;;;;5002634;28;20112;-54
2022/11/09 01:17:23;;;;;;;5.43;2.35;;;12.80;99.90;;;;;;5002226;28;20104;-54
2022/11/09 01:19:49;;;;;;;7.72;2.70;;;12.80;99.90;;;;;;5002688;28;20396;-54
2022/11/09 01:22:16;;;;;;;6.45;2.85;;;12.60;99.90;;;;;;5001601;28;20485;-53
2022/11/09 01:24:41;;;;;;;6.50;3.00;;;12.80;99.90;;;;;;4983532;28;20061;-55
2022/11/09 01:27:07;;;;;;;7.35;2.60;;;12.60;99.90;;;;;;5002958;28;20038;-55
2022/11/09 01:29:33;;;;;;;7.15;2.90;;;12.80;99.90;;;;;;4985412;28;20092;-54
2022/11/09 01:31:58;;;;;;;6.72;2.72;;;12.60;99.90;;;;;;5002252;28;20049;-54
2022/11/09 01:34:27;;;;;;;5.95;2.28;;;12.80;99.90;;;;;;4983884;28;20050;-53
2022/11/09 01:36:53;;;;;;;7.10;2.28;;;12.80;99.90;;;;;;5001123;28;20037;-54
2022/11/09 01:39:19;;;;;;;6.05;2.50;;;12.70;99.90;;;;;;4984620;28;20053;-54
2022/11/09 01:41:46;;;;;;;5.40;2.45;;;12.80;99.90;;;;;;5002550;28;20121;-53
2022/11/09 01:44:14;;;;;;;8.60;2.80;;;12.70;99.90;;;;;;5001733;28;20292;-53
2022/11/09 01:47:04;;;;;;;5.75;2.38;;;12.80;99.90;;;;;;4985141;28;20103;-55
2022/11/09 01:49:45;;;;;;;5.57;2.30;;;12.60;99.90;;;;;;5001710;28;20343;-53
2022/11/09 01:52:23;;;;;;;5.95;2.42;;;12.70;99.90;;;;;;5001601;28;20602;-56
2022/11/09 01:54:53;;;;;;;7.43;2.50;;;12.70;99.90;;;;;;5000996;28;20101;-54
2022/11/09 01:57:24;;;;;;;6.32;2.47;;;12.70;99.90;;;;;;5001262;28;20489;-54
2022/11/09 02:00:00;;;;;;;6.80;2.70;;;12.70;99.90;;;;;;5000985;28;20072;-54
2022/11/09 02:02:25;;;;;;;6.22;2.50;;;12.70;99.90;;;;;;5002045;28;20050;-51
2022/11/09 02:04:57;;;;;;;6.05;2.60;;;12.90;99.90;;;;;;4978933;28;20044;-54
2022/11/09 02:07:23;;;;;;;7.78;2.50;;;12.80;99.90;;;;;;4983175;28;20053;-53
2022/11/09 02:09:52;;;;;;;5.32;2.55;;;12.80;99.90;;;;;;5001570;28;20050;-53
2022/11/09 02:12:19;;;;;;;6.28;2.35;;;12.70;99.90;;;;;;5001667;28;20088;-54
2022/11/09 02:14:48;;;;;;;5.43;2.40;;;12.80;99.90;;;;;;5000919;28;20650;-53
2022/11/09 02:17:14;;;;;;;7.68;2.50;;;12.60;99.90;;;;;;5062757;23;20127;-54
2022/11/09 02:19:40;;;;;;;7.00;2.63;;;12.70;99.90;;;;;;5021260;28;20053;-55
2022/11/09 02:22:05;;;;;;;5.95;2.33;;;12.70;99.90;;;;;;5021079;28;20045;-54
2022/11/09 02:24:32;;;;;;;5.78;2.47;;;12.70;99.90;;;;;;5024146;28;20461;-53
2022/11/09 02:26:58;;;;;;;6.75;2.40;;;12.60;99.90;;;;;;5023859;28;20045;-54
2022/11/09 02:29:32;;;;;;;4.22;1.85;;;12.60;99.90;;;;;;5024755;28;20125;-54
2022/11/09 02:32:05;;;;;;;6.97;2.60;;;12.70;99.90;;;;;;5024216;28;20037;-53
2022/11/09 02:34:31;;;;;;;5.57;2.08;;;12.60;99.90;;;;;;5023573;28;20081;-54
2022/11/09 02:36:57;;;;;;;8.20;2.72;;;12.70;99.90;;;;;;5023547;28;20088;-54
2022/11/09 02:39:25;;;;;;;5.20;2.47;;;12.60;99.90;;;;;;5025179;28;20045;-54
2022/11/09 02:41:59;;;;;;;4.47;1.95;;;12.60;99.90;;;;;;5023841;28;20089;-54
2022/11/09 02:44:27;;;;;;;5.50;2.47;;;12.60;99.90;;;;;;5024132;28;20081;-54
2022/11/09 02:46:52;;;;;;;6.88;2.65;;;12.30;99.90;;;;;;5024417;28;20057;-53
2022/11/09 02:49:18;;;;;;;6.00;2.60;;;12.50;99.90;;;;;;5023238;28;20051;-54
2022/11/09 02:51:44;;;;;;;8.07;2.80;;;12.30;99.90;;;;;;5023309;28;20430;-53
2022/11/09 02:54:09;;;;;;;5.75;2.47;;;12.40;99.90;;;;;;5025238;28;20041;-53
2022/11/09 02:56:35;;;;;;;5.60;1.55;;;12.40;99.90;;;;;;5024243;28;20037;-53
2022/11/09 02:59:02;;;;;;;9.10;2.55;;;12.60;99.90;;;;;;5023066;28;20203;-55
2022/11/09 03:01:28;;;;;;;8.05;2.70;;;12.50;99.90;;;;;;5024159;28;20038;-54
2022/11/09 03:03:53;;;;;;;7.57;2.33;;;12.60;99.90;;;;;;5024471;28;20048;-54
2022/11/09 03:06:19;;;;;;;7.82;3.08;;;12.60;99.90;;;;;;5023967;28;20037;-54
2022/11/09 03:08:45;;;;;;;5.32;2.17;;;12.40;99.90;;;;;;5021618;28;20524;-54
2022/11/09 03:11:10;;;;;;;7.50;2.25;;;12.50;99.90;;;;;;5024262;28;20037;-55
2022/11/09 03:13:36;;;;;;;7.03;2.40;;;12.60;99.90;;;;;;5024570;28;20047;-54
2022/11/09 03:16:06;;;;;;;7.40;2.00;;;12.30;99.90;;;;;;5023705;28;20050;-53
2022/11/09 03:18:32;;;;;;;10.75;2.53;;;12.30;99.90;;;;;;5024032;28;20385;-53
2022/11/09 03:21:02;;;;;;;8.73;2.70;;;12.30;99.90;;;;;;5023545;28;20088;-54
2022/11/09 03:23:28;;;;;;;7.68;2.67;;;12.50;99.90;;;;;;5017688;28;20125;-54
2022/11/09 03:25:54;;;;;;;7.88;2.42;;;12.40;99.90;;;;;;5020001;28;20116;-54
2022/11/09 03:28:19;;;;;;;5.32;2.22;;;12.30;99.90;;;;;;5023643;28;20049;-52
2022/11/09 03:30:46;;;;;;;6.22;2.50;;;12.40;99.90;;;;;;5024087;28;20040;-54
2022/11/09 03:33:13;;;;;;;6.78;2.20;;;12.40;99.90;;;;;;5023481;28;20041;-55
2022/11/09 03:35:39;;;;;;;8.85;2.25;;;12.50;99.90;;;;;;5024100;28;20091;-54
2022/11/09 03:38:05;;;;;;;6.75;2.72;;;12.30;99.90;;;;;;5023063;28;20411;-54
2022/11/09 03:40:31;;;;;;;8.07;2.30;;;12.30;99.90;;;;;;5023515;28;20064;-54
2022/11/09 03:42:56;;;;;;;11.32;2.70;;;12.40;99.90;;;;;;5022304;28;20697;-52
2022/11/09 03:45:22;;;;;;;8.90;2.58;;;12.20;99.90;;;;;;5023916;28;20124;-52
2022/11/09 03:47:48;;;;;;;7.60;2.53;;;12.40;99.90;;;;;;5023668;28;20523;-54
2022/11/09 03:50:15;;;;;;;8.27;2.40;;;12.30;99.90;;;;;;5023115;28;20593;-53
2022/11/09 03:52:45;;;;;;;9.13;2.40;;;12.40;99.90;;;;;;5021376;28;20052;-55
2022/11/09 03:55:11;;;;;;;7.95;2.45;;;12.30;99.90;;;;;;5022742;28;20108;-53
2022/11/09 03:57:37;;;;;;;8.18;1.85;;;12.40;99.90;;;;;;5022349;28;20057;-53
2022/11/09 04:00:05;;;;;;;7.47;2.00;;;12.20;99.90;;;;;;5021432;28;20068;-54
2022/11/09 04:02:30;;;;;;;7.05;2.00;;;12.40;99.90;;;;;;5022589;28;20052;-55
2022/11/09 04:04:56;;;;;;;6.05;2.10;;;12.50;99.90;;;;;;5022341;28;20053;-55
2022/11/09 04:07:22;;;;;;;6.03;1.80;;;12.40;99.90;;;;;;5021496;28;20144;-53
2022/11/09 04:09:47;;;;;;;9.90;2.47;;;12.20;99.90;;;;;;5021993;28;20049;-57
2022/11/09 04:12:13;;;;;;;8.73;2.10;;;12.30;99.90;;;;;;5022446;28;20128;-54
2022/11/09 04:14:38;;;;;;;8.55;2.10;;;12.10;99.90;;;;;;5021909;28;20202;-53
2022/11/09 04:17:04;;;;;;;7.22;2.10;;;12.10;99.90;;;;;;5022140;28;20187;-54
2022/11/09 04:19:30;;;;;;;9.45;2.50;;;12.10;99.90;;;;;;5020649;28;20158;-54
2022/11/09 04:21:55;;;;;;;8.57;2.40;;;12.10;99.90;;;;;;5021871;28;20151;-53
2022/11/09 04:24:21;;;;;;;9.10;2.10;;;12.00;99.90;;;;;;5022655;28;20080;-53
2022/11/09 04:26:47;;;;;;;12.68;2.55;;;12.10;99.90;;;;;;5021876;28;20045;-55
2022/11/09 04:29:13;;;;;;;8.18;2.22;;;12.10;99.90;;;;;;5022118;28;20343;-55
2022/11/09 04:31:38;;;;;;;9.63;2.22;;;12.10;99.90;;;;;;5023164;28;20132;-54
2022/11/09 04:34:04;;;;;;;8.48;1.80;;;12.30;99.90;;;;;;5022654;28;20045;-54
2022/11/09 04:36:30;;;;;;;7.85;2.40;;;12.30;99.90;;;;;;5003310;28;20064;-54
2022/11/09 04:38:55;;;;;;;7.00;2.75;;;12.30;99.90;;;;;;5022951;28;20038;-54
2022/11/09 04:41:21;;;;;;;8.82;2.03;;;12.20;99.90;;;;;;5021037;28;20459;-54
2022/11/09 04:43:47;;;;;;;8.02;1.95;;;12.10;99.90;;;;;;5021791;28;20049;-55
2022/11/09 04:46:13;;;;;;;8.20;2.35;;;12.30;99.90;;;;;;5021442;28;20034;-54
2022/11/09 04:48:38;;;;;;;8.70;2.35;;;12.00;99.90;;;;;;5023222;28;20545;-54
2022/11/09 04:51:06;;;;;;;7.85;2.40;;;12.10;99.90;;;;;;5021598;28;20052;-54
2022/11/09 04:53:33;;;;;;;7.95;2.78;;;12.20;99.90;;;;;;5021485;28;20044;-54
2022/11/09 04:55:59;;;;;;;7.07;2.10;;;12.00;99.90;;;;;;5021692;28;20037;-53
2022/11/09 04:58:25;;;;;;;7.10;2.05;;;12.00;99.90;;;;;;5021901;28;20115;-54
2022/11/09 05:00:52;;;;;;;6.95;2.38;;;12.00;99.90;;;;;;5021595;28;20507;-54
2022/11/09 05:03:18;;;;;;;8.32;2.22;;;12.10;99.90;;;;;;5021724;28;20073;-54
2022/11/09 05:05:44;;;;;;;8.73;2.40;;;12.00;99.90;;;;;;5021713;28;20045;-54
2022/11/09 05:08:10;;;;;;;7.53;2.22;;;11.90;99.90;;;;;;5021482;28;20112;-54
2022/11/09 05:10:36;;;;;;;6.80;2.40;;;12.00;99.90;;;;;;5022231;28;20129;-54
2022/11/09 05:13:07;;;;;;;6.18;2.30;;;12.00;99.90;;;;;;5021638;28;20056;-54
2022/11/09 05:15:34;;;;;;;10.27;2.50;;;12.00;99.90;;;;;;5021089;28;20036;-54
2022/11/09 05:18:00;;;;;;;8.07;2.80;;;12.00;99.90;;;;;;5020663;28;20069;-54
2022/11/09 05:20:27;;;;;;;6.70;2.78;;;12.30;99.90;;;;;;5021902;28;20049;-53
2022/11/09 05:25:37;;;;;;;9.52;2.30;;;12.30;99.90;;;;;;5022445;28;20053;-54
2022/11/09 05:28:03;;;;;;;5.65;1.33;;;12.20;99.90;;;;;;5020547;28;20382;-54
2022/11/09 05:30:29;;;;;;;6.20;2.08;;;12.40;99.90;;;;;;5021700;28;20103;-54
2022/11/09 05:32:54;;;;;;;10.48;2.75;;;12.20;99.90;;;;;;5020722;28;20037;-54
2022/11/09 05:35:20;;;;;;;6.07;2.03;;;12.10;99.90;;;;;;5021435;28;20068;-55
2022/11/09 05:37:47;;;;;;;5.85;2.20;;;12.30;99.90;;;;;;5020497;28;20046;-54
2022/11/09 05:40:14;;;;;;;6.18;2.40;;;12.20;99.90;;;;;;5021465;28;20453;-54
2022/11/09 05:42:40;;;;;;;7.60;2.38;;;12.10;99.90;;;;;;5020739;28;20124;-54
2022/11/09 05:45:08;;;;;;;4.85;1.98;;;12.20;99.90;;;;;;5020555;28;20042;-54
2022/11/09 05:47:41;;;;;;;6.40;2.25;;;12.20;99.90;;;;;;5020612;28;20108;-54
2022/11/09 05:50:09;;;;;;;7.95;2.55;;;12.20;99.90;;;;;;5021741;28;20416;-53
2022/11/09 05:52:35;;;;;;;5.85;1.90;;;12.30;99.90;;;;;;5003282;28;20037;-55
2022/11/09 05:55:01;;;;;;;10.90;2.20;;;12.30;99.90;;;;;;5019751;28;20455;-54
2022/11/09 05:57:27;;;;;;;6.35;2.50;;;12.30;99.90;;;;;;5004593;28;20212;-53
2022/11/09 05:59:53;;;;;;;9.60;2.55;;;12.40;99.90;;;;;;5025124;28;20481;-53
2022/11/09 06:02:18;;;;;;;4.90;1.63;;;12.20;99.90;;;;;;5024383;28;20077;-53
2022/11/09 06:04:44;;;;;;;8.73;2.35;;;12.30;99.90;;;;;;5024501;28;20468;-50
2022/11/09 06:07:10;;;;;;;6.97;2.10;;;12.20;99.90;;;;;;5024660;28;20172;-54
2022/11/09 06:09:35;;;;;;;5.75;2.22;;;12.20;99.90;;;;;;5007485;28;20135;-54
2022/11/09 06:12:01;;;;;;;11.43;2.90;;;12.30;99.90;;;;;;5024165;28;20034;-54
2022/11/09 06:14:27;;;;;;;8.02;2.17;;;12.30;99.90;;;;;;5025026;28;20045;-53
2022/11/09 06:16:52;;;;;;;8.35;2.08;;;12.30;99.90;;;;;;5024523;28;20160;-53
2022/11/09 06:19:18;;;;;;;6.82;1.77;;;12.20;99.90;;;;;;5024680;28;20141;-55
2022/11/09 06:21:43;;;;;;;7.55;2.05;;;12.40;99.90;;;;;;5023283;28;20135;-53
2022/11/09 06:24:09;;;;;;;11.52;2.22;;;12.20;99.90;;;;;;5024885;28;20041;-53
2022/11/09 06:26:35;;;;;;;6.97;2.03;;;12.30;99.90;;;;;;5024732;28;20476;-54
2022/11/09 06:29:01;;;;;;;8.48;2.45;;;12.10;99.90;;;;;;5024361;28;20064;-53
2022/11/09 06:31:27;;;;;;;8.55;2.25;;;12.30;99.90;;;;;;5024835;28;20591;-53
2022/11/09 06:33:53;;;;;;;5.05;1.90;;;12.00;99.90;;;;;;5023259;28;20052;-54
2022/11/09 06:36:18;;;;;;;7.95;2.50;;;12.20;99.90;;;;;;5023951;28;20124;-54
2022/11/09 06:38:48;;;;;;;9.60;2.53;;;12.10;99.90;;;;;;5023356;28;20047;-53
2022/11/09 06:41:14;;;;;;;5.85;1.95;;;12.00;99.90;;;;;;5023845;28;20049;-54
2022/11/09 06:43:40;;;;;;;6.55;1.90;;;12.00;99.90;;;;;;5024494;28;20064;-54
2022/11/09 06:46:06;;;;;;;7.57;2.25;;;12.10;99.90;;;;;;5023704;28;20042;-54
2022/11/09 06:48:32;;;;;;;8.75;2.35;;;12.00;99.90;;;;;;5023797;28;20050;-54
2022/11/09 06:51:01;;;;;;;5.28;1.92;;;12.10;99.90;;;;;;5024239;28;20049;-54
2022/11/09 06:53:29;;;;;;;7.03;1.83;;;11.90;99.90;;;;;;5024430;28;20033;-53
2022/11/09 06:55:59;;;;;;;4.63;1.92;;;11.90;99.90;;;;;;5024214;28;20053;-53
2022/11/09 06:58:25;;;;;;;6.10;1.85;;;12.00;99.90;;;;;;5024282;28;20103;-54
2022/11/09 07:00:51;;;;;;;9.38;2.53;;;11.90;99.90;;;;;;5023318;28;20067;-53
2022/11/09 07:03:18;;;;;;;7.15;2.10;;;12.00;99.90;;;;;;5023325;28;20484;-52
2022/11/09 07:05:44;;;;;;;6.53;2.10;;;11.90;99.90;;;;;;5023258;28;20060;-52
2022/11/09 07:08:11;;;;;;;8.85;2.10;;;11.90;99.90;;;;;;5023379;28;20060;-53
2022/11/09 07:10:36;;;;;;;6.63;1.80;;;11.90;99.90;;;;;;5024397;28;20076;-54
2022/11/09 07:13:03;;;;;;;9.32;2.60;;;12.00;99.90;;;;;;5005479;28;20053;-55
2022/11/09 07:15:28;;;;;;;5.75;2.17;;;11.80;99.90;;;;;;5023267;28;20072;-54
2022/11/09 07:17:59;;;;;;;10.95;2.22;;;11.80;99.90;;;;;;5023558;28;20054;-53
2022/11/09 07:20:25;;;;;;;9.52;2.25;;;11.80;99.90;;;;;;5023673;28;20052;-54
2022/11/09 07:22:51;;;;;;;10.57;2.33;;;11.80;99.90;;;;;;5022529;28;20053;-54
2022/11/09 07:25:17;;;;;;;7.63;1.92;;;11.90;99.90;;;;;;5006053;28;20084;-53
2022/11/09 07:27:43;;;;;;;8.32;2.00;;;12.00;99.90;;;;;;5006118;28;20468;-52
2022/11/09 07:30:09;;;;;;;8.70;2.40;;;11.80;99.90;;;;;;5022537;28;20041;-53
2022/11/09 07:32:36;;;;;;;9.68;1.90;;;11.90;99.90;;;;;;5005306;28;20096;-53
2022/11/09 07:35:03;;;;;;;12.23;2.63;;;11.90;99.90;;;;;;5023766;28;20060;-53
2022/11/09 07:37:29;;;;;;;6.55;1.88;;;11.70;99.90;;;;;;5022913;28;20432;-53
2022/11/09 07:39:54;;;;;;;11.32;2.90;;;11.70;99.90;;;;;;5022451;28;20456;-53
2022/11/09 07:42:20;;;;;;;7.88;1.80;;;11.70;99.90;;;;;;5023283;28;20073;-54
2022/11/09 07:44:46;;;;;;;8.00;2.70;;;11.90;99.90;;;;;;5022014;28;20045;-53
2022/11/09 07:47:12;;;;;;;5.63;1.60;;;11.90;99.90;;;;;;5023173;28;20049;-54
2022/11/09 07:49:37;;;;;;;7.55;2.10;;;12.00;99.90;;;;;;5023178;28;20041;-54
2022/11/09 07:52:03;;;;;;;7.95;2.30;;;11.80;99.90;;;;;;5022016;28;20592;-53
2022/11/09 07:54:29;;;;;;;8.73;2.30;;;11.90;99.90;;;;;;5023665;28;20037;-52
2022/11/09 07:56:54;;;;;;;9.50;2.33;;;11.80;99.90;;;;;;5004862;28;20041;-54
2022/11/09 07:59:20;;;;;;;5.63;1.80;;;12.00;99.90;;;;;;5022422;28;20141;-54
2022/11/09 08:01:46;;;;;;;5.57;1.90;;;11.90;99.90;;;;;;5022827;28;20120;-54
2022/11/09 08:04:11;;;;;;;6.72;1.83;;;11.90;99.90;;;;;;5023147;28;20045;-54
2022/11/09 08:06:37;;;;;;;8.63;2.38;;;11.90;99.90;;;;;;5020479;28;20073;-54
2022/11/09 08:09:03;;;;;;;11.05;2.28;;;12.10;99.90;;;;;;5005318;28;20041;-53
2022/11/09 08:11:28;;;;;;;8.23;2.03;;;12.00;99.90;;;;;;5022657;28;20396;-53
2022/11/09 08:13:55;;;;;;;9.00;2.22;;;12.10;99.90;;;;;;5022525;28;20531;-53
2022/11/09 08:16:21;;;;;;;8.05;2.63;;;12.30;99.90;;;;;;5021732;28;20056;-52
2022/11/09 08:18:49;;;;;;;6.50;1.88;;;12.40;99.90;;;;;;5022698;28;20049;-54
2022/11/09 08:21:15;;;;;;;7.78;1.80;;;12.40;99.90;;;;;;5004580;28;20162;-54
2022/11/09 08:23:40;;;;;;;7.30;2.38;;;12.30;99.90;;;;;;5004417;28;20503;-55
2022/11/09 08:26:06;;;;;;;8.88;2.25;;;12.50;99.90;;;;;;5022446;28;20602;-53
2022/11/09 08:28:33;;;;;;;7.55;1.70;;;12.50;99.90;;;;;;5023016;28;20419;-54
2022/11/09 08:31:01;;;;;;;8.10;2.53;;;12.40;99.90;;;;;;5022800;28;20575;-54
2022/11/09 08:33:29;;;;;;;7.55;2.60;;;12.60;99.90;;;;;;5021511;28;20106;-54
2022/11/09 08:35:55;;;;;;;8.50;2.40;;;12.70;99.90;;;;;;5021870;28;20041;-53
2022/11/09 08:38:21;;;;;;;8.32;2.85;;;12.60;99.90;;;;;;5022440;28;20041;-53
2022/11/09 08:40:47;;;;;;;8.98;2.60;;;12.80;99.90;;;;;;5021185;28;20044;-54
2022/11/09 08:43:13;;;;;;;10.25;3.15;;;12.70;99.90;;;;;;5022571;28;20060;-54
2022/11/09 08:45:40;;;;;;;7.80;2.22;;;12.70;99.90;;;;;;5023215;28;20059;-54
2022/11/09 08:48:07;;;;;;;5.90;1.88;;;12.80;99.90;;;;;;5022530;28;20042;-54
2022/11/09 08:50:35;;;;;;;5.55;1.77;;;12.90;99.90;;;;;;5004112;28;20086;-55
2022/11/09 08:53:02;;;;;;;9.50;2.20;;;12.90;99.90;;;;;;5022285;28;20182;-55
2022/11/09 08:55:28;;;;;;;11.98;2.53;;;13.00;99.90;;;;;;5022446;28;20042;-54
2022/11/09 08:57:55;;;;;;;7.93;2.25;;;13.00;99.90;;;;;;5022215;28;20053;-54
2022/11/09 09:00:21;;;;;;;9.05;2.17;;;13.10;99.90;;;;;;5022441;28;20479;-55
2022/11/09 09:02:47;;;;;;;8.77;2.80;;;13.00;99.90;;;;;;5022610;28;20053;-55
2022/11/09 09:05:14;;;;;;;8.40;2.38;;;13.10;99.90;;;;;;5021335;28;20045;-55
2022/11/09 09:07:39;;;;;;;12.98;3.42;;;13.20;99.90;;;;;;5020997;28;20057;-55
2022/11/09 09:10:05;;;;;;;11.93;2.78;;;13.30;99.90;;;;;;5021975;28;20049;-54
2022/11/09 09:12:31;;;;;;;4.50;1.88;;;13.30;99.90;;;;;;5022125;28;20041;-53
2022/11/09 09:14:57;;;;;;;8.73;2.33;;;13.30;99.90;;;;;;5022156;28;20091;-54
2022/11/09 09:17:23;;;;;;;9.00;2.50;;;13.40;99.90;;;;;;5021483;28;20444;-53
2022/11/09 09:19:48;;;;;;;7.50;2.17;;;13.40;99.90;;;;;;5022539;28;20747;-54
2022/11/09 09:22:14;;;;;;;10.18;3.22;;;13.50;99.90;;;;;;5021678;28;20046;-53
2022/11/09 09:24:39;;;;;;;8.27;2.30;;;13.50;99.90;;;;;;5022308;28;20037;-54
2022/11/09 09:27:05;;;;;;;11.52;2.67;;;13.70;99.90;;;;;;5022213;28;20041;-54
2022/11/09 09:29:31;;;;;;;9.95;2.35;;;13.90;99.90;;;;;;5022308;28;20046;-54
2022/11/09 09:31:56;;;;;;;9.48;2.45;;;13.80;99.90;;;;;;5021741;28;20052;-53
2022/11/09 09:34:22;;;;;;;7.60;1.95;;;14.00;99.90;;;;;;5025974;28;20095;-54
2022/11/09 09:36:48;;;;;;;10.13;2.38;;;14.10;99.90;;;;;;5025530;28;20385;-53
2022/11/09 09:39:14;;;;;;;11.38;2.90;;;14.40;99.90;;;;;;5026059;28;20034;-55
2022/11/09 09:41:53;;;;;;;8.82;2.53;;;14.60;99.90;;;;;;5026227;28;20061;-54
2022/11/09 09:44:32;;;;;;;9.80;2.38;;;14.80;99.90;;;;;;5026292;28;20333;-54
2022/11/09 09:47:17;;;;;;;9.00;2.90;;;14.90;99.90;;;;;;5025963;28;20052;-53
2022/11/09 09:49:55;;;;;;;8.25;2.22;;;14.60;99.90;;;;;;5025551;28;20133;-54
2022/11/09 09:52:39;;;;;;;7.28;2.33;;;14.50;99.90;;;;;;5025510;28;20442;-54
2022/11/09 09:55:26;;;;;;;11.25;2.78;;;14.40;99.90;;;;;;5025458;28;20055;-53
2022/11/09 09:58:03;;;;;;;7.82;2.45;;;14.50;99.90;;;;;;5025083;28;20087;-63
2022/11/09 10:00:30;;;;;;;9.38;2.83;;;14.70;99.90;;;;;;5025481;28;20095;-62
2022/11/09 10:02:56;;;;;;;9.20;1.88;;;14.20;99.90;;;;;;5024966;28;20458;-63
2022/11/09 10:05:31;;;;;;;9.13;2.63;;;14.30;99.90;;;;;;5023555;28;20128;-62
2022/11/09 10:08:09;;;;;;;10.05;3.05;;;14.30;99.90;;;;;;5025499;28;20167;-63
2022/11/09 10:10:37;;;;;;;10.50;2.42;;;14.20;99.90;;;;;;5007460;28;20111;-63
2022/11/09 10:13:47;;;;;;;7.45;2.40;;;14.40;99.90;;;;;;5023894;28;20079;-63
2022/11/09 10:16:21;;;;;;;8.57;2.63;;;14.50;99.90;;;;;;5017191;28;20100;-63
2022/11/09 10:19:16;;;;;;;8.55;2.78;;;14.40;99.90;;;;;;5025056;28;20057;-62
2022/11/09 10:21:51;;;;;;;11.52;2.67;;;14.70;99.90;;;;;;4997646;28;20088;-63
2022/11/09 10:24:19;;;;;;;11.27;2.60;;;14.50;99.90;;;;;;5025565;28;20092;-63
2022/11/09 10:26:51;;;;;;;6.97;2.50;;;14.40;99.90;;;;;;5023407;28;20464;-63
2022/11/09 10:29:34;;;;;;;8.07;2.28;;;14.20;99.90;;;;;;5024715;28;20084;-63
2022/11/09 10:32:17;;;;;;;9.95;2.95;;;14.40;99.90;;;;;;5024995;28;20045;-63
2022/11/09 10:35:01;;;;;;;8.60;2.42;;;14.50;99.90;;;;;;5025416;28;20419;-63
2022/11/09 10:37:31;;;;;;;7.88;2.63;;;14.30;99.90;;;;;;5006305;28;20048;-63
2022/11/09 10:40:08;;;;;;;7.45;2.67;;;14.00;99.90;;;;;;5024064;28;20045;-63
2022/11/09 10:42:33;;;;;;;6.90;2.03;;;14.30;99.90;;;;;;5024618;28;20049;-63
2022/11/09 10:45:10;;;;;;;8.82;2.60;;;14.60;99.90;;;;;;5023812;28;20508;-63
2022/11/09 10:47:51;;;;;;;4.53;1.73;;;14.20;99.90;;;;;;5024778;28;20523;-62
2022/11/09 10:50:45;;;;;;;6.03;2.20;;;14.00;99.90;;;;;;5023720;28;20290;-63
2022/11/09 10:53:24;;;;;;;7.95;2.88;;;13.70;99.90;;;;;;5024669;28;20041;-64
2022/11/09 10:56:14;;;;;;;9.13;2.90;;;13.70;99.90;;;;;;5023863;28;20128;-63
2022/11/09 10:58:49;;;;;;;14.02;2.78;;;13.70;99.90;;;;;;5024663;28;20042;-63
2022/11/09 11:01:20;;;;;;;9.55;2.75;;;13.90;99.90;;;;;;5023300;28;20053;-63
2022/11/09 11:03:52;;;;;;;8.75;2.85;;;13.90;99.90;;;;;;5024471;28;20048;-63
2022/11/09 11:06:21;;;;;;;4.47;1.50;;;13.90;99.90;;;;;;5023218;28;20587;-63
2022/11/09 11:08:47;;;;;;;8.20;2.53;;;13.70;99.90;;;;;;5023389;28;20100;-63
2022/11/09 11:11:21;;;;;;;7.68;1.98;;;13.90;99.90;;;;;;5024484;28;20045;-63
2022/11/09 11:13:48;;;;;;;9.25;2.40;;;13.80;99.90;;;;;;5023764;28;20176;-63
2022/11/09 11:16:31;;;;;;;10.00;2.90;;;13.90;99.90;;;;;;5023336;28;20041;-63
2022/11/09 11:18:57;;;;;;;9.30;2.50;;;13.90;99.90;;;;;;5023698;28;20688;-63
2022/11/09 11:21:24;;;;;;;11.57;2.40;;;13.90;99.90;;;;;;5023559;28;20045;-63
2022/11/09 11:24:11;;;;;;;10.63;2.92;;;13.70;99.90;;;;;;5005255;28;20072;-63
2022/11/09 11:26:44;;;;;;;10.15;2.67;;;13.80;99.90;;;;;;5024374;28;20120;-63
2022/11/09 11:29:35;;;;;;;6.47;2.20;;;13.70;99.90;;;;;;5005440;28;20054;-62
2022/11/09 11:32:01;;;;;;;11.50;2.88;;;13.70;99.90;;;;;;5023340;28;20045;-63
2022/11/09 11:34:27;;;;;;;10.40;2.97;;;13.80;99.90;;;;;;5022820;28;20060;-63
2022/11/09 11:37:19;;;;;;;10.95;2.70;;;14.00;99.90;;;;;;5022256;28;20407;-60
2022/11/09 11:39:51;;;;;;;10.27;2.80;;;14.20;99.90;;;;;;5023033;28;20046;-59
2022/11/09 11:42:31;;;;;;;9.18;2.33;;;14.10;99.90;;;;;;5023225;28;20034;-60
2022/11/09 11:45:07;;;;;;;7.32;2.30;;;14.00;99.90;;;;;;5022939;28;20648;-58
2022/11/09 11:48:01;;;;;;;10.10;2.35;;;14.00;99.90;;;;;;5023776;28;20098;-59
2022/11/09 11:50:48;;;;;;;8.50;2.20;;;14.00;99.90;;;;;;5022767;28;20060;-59
2022/11/09 11:53:32;;;;;;;7.28;2.25;;;14.00;99.90;;;;;;5024223;28;20037;-60
2022/11/09 11:56:16;;;;;;;11.52;2.75;;;13.90;99.90;;;;;;5021568;28;20049;-59
2022/11/09 11:59:25;;;;;;;8.68;3.25;;;14.00;99.90;;;;;;5023484;28;20395;-60
2022/11/09 12:02:03;;;;;;;10.43;2.97;;;13.90;99.90;;;;;;5023801;28;20045;-59
2022/11/09 12:04:53;;;;;;;12.65;3.10;;;14.00;99.90;;;;;;5021969;28;20053;-57
2022/11/09 12:07:41;;;;;;;9.05;2.60;;;13.90;99.90;;;;;;5022312;28;20667;-59
2022/11/09 12:10:55;;;;;;;6.60;1.75;;;13.90;99.90;;;;;;5023149;28;20056;-59
2022/11/09 12:13:24;;;;;;;9.10;2.35;;;13.80;99.90;;;;;;5003607;28;20096;-59
2022/11/09 12:16:09;;;;;;;5.32;1.80;;;13.80;99.90;;;;;;5004553;28;20045;-59
2022/11/09 12:19:06;;;;;;;11.00;2.35;;;13.80;99.90;;;;;;5023066;28;20053;-59
2022/11/09 12:21:41;;;;;;;7.57;2.20;;;13.90;99.90;;;;;;5022835;28;20081;-60
2022/11/09 12:24:19;;;;;;;8.20;2.10;;;14.00;99.90;;;;;;5023818;28;20049;-59
2022/11/09 12:27:20;;;;;;;9.82;2.60;;;14.10;99.90;;;;;;5022575;28;20048;-60
2022/11/09 12:30:16;;;;;;;12.93;2.30;;;14.10;99.90;;;;;;5022144;28;20064;-60
2022/11/09 12:32:56;;;;;;;12.18;2.83;;;13.90;99.90;;;;;;5022562;28;20088;-60
2022/11/09 12:35:25;;;;;;;5.72;1.77;;;13.90;99.90;;;;;;5020907;28;20053;-59
2022/11/09 12:38:04;;;;;;;7.25;2.28;;;13.70;99.90;;;;;;5021540;28;20467;-59
2022/11/09 12:40:35;;;;;;;9.77;2.15;;;13.80;99.90;;;;;;5022866;28;20660;-60
2022/11/09 12:43:19;;;;;;;8.55;2.33;;;13.80;99.90;;;;;;5022421;28;20124;-59
2022/11/09 12:45:50;;;;;;;7.88;2.28;;;13.70;99.90;;;;;;5022890;28;20045;-60
2022/11/09 12:48:22;;;;;;;8.27;2.30;;;13.80;99.90;;;;;;5023094;28;20037;-60
2022/11/09 12:50:49;;;;;;;11.63;2.75;;;13.70;99.90;;;;;;5021349;28;20081;-59
2022/11/09 12:53:16;;;;;;;9.70;2.47;;;13.70;99.90;;;;;;5022320;28;20037;-58
2022/11/09 12:55:54;;;;;;;11.35;2.92;;;13.50;99.90;;;;;;5021457;28;20136;-60
2022/11/09 12:58:28;;;;;;;7.82;2.78;;;13.60;99.90;;;;;;5021996;28;20041;-59
2022/11/09 13:00:56;;;;;;;9.07;2.28;;;13.50;99.90;;;;;;5003753;28;20088;-59